Time;durP1;ratioP1;P1;durP2;ratioP2;P2;SDS_P1;SDS_P2;PMS_P1;PMS_P2;Temp;Humidity;BMP_temperature;BMP_pressure;BME280_temperature;BME280_humidity;BME280_pressure;Samples;Min_cycle;Max_cycle;Signal;HPM_P1;HPM_P2
2021/03/15 00:02:05;;;;;;;0.70;0.40;;;22.00;32.30;;;;;;5034446;28;20423;-61
2021/03/15 00:04:31;;;;;;;0.68;0.40;;;22.00;32.30;;;;;;5034396;28;20399;-60
2021/03/15 00:06:56;;;;;;;1.10;0.40;;;22.00;32.30;;;;;;5034006;28;20462;-60
2021/03/15 00:09:22;;;;;;;0.50;0.30;;;22.00;32.20;;;;;;5034467;28;20395;-60
2021/03/15 00:11:48;;;;;;;0.60;0.40;;;22.00;32.20;;;;;;5034066;28;20998;-61
2021/03/15 00:14:13;;;;;;;0.70;0.45;;;22.00;32.20;;;;;;5034217;28;20770;-60
2021/03/15 00:16:39;;;;;;;1.10;0.50;;;22.00;32.20;;;;;;5033929;28;20379;-61
2021/03/15 00:19:05;;;;;;;0.82;0.40;;;22.00;32.20;;;;;;5033708;28;20492;-60
2021/03/15 00:21:30;;;;;;;0.67;0.30;;;21.90;32.10;;;;;;5032743;28;20898;-60
2021/03/15 00:23:56;;;;;;;0.70;0.40;;;21.90;32.10;;;;;;5032777;28;20403;-61
2021/03/15 00:26:21;;;;;;;0.50;0.30;;;21.90;32.00;;;;;;5034068;28;20398;-60
2021/03/15 00:28:47;;;;;;;0.85;0.35;;;22.00;32.10;;;;;;5033783;28;20383;-60
2021/03/15 00:31:13;;;;;;;0.90;0.40;;;21.90;32.00;;;;;;5033589;28;20974;-60
2021/03/15 00:33:38;;;;;;;0.50;0.32;;;21.90;32.00;;;;;;5033826;28;20399;-61
2021/03/15 00:36:05;;;;;;;0.50;0.30;;;21.90;32.00;;;;;;5033949;28;20391;-61
2021/03/15 00:38:30;;;;;;;0.60;0.30;;;21.90;32.00;;;;;;5033749;28;20399;-60
2021/03/15 00:40:56;;;;;;;0.60;0.30;;;21.90;32.00;;;;;;5032676;28;20392;-60
2021/03/15 00:43:22;;;;;;;0.55;0.20;;;21.90;32.00;;;;;;5033757;28;20414;-61
2021/03/15 00:45:47;;;;;;;0.60;0.30;;;21.90;32.00;;;;;;5033695;28;20928;-60
2021/03/15 00:48:13;;;;;;;0.60;0.30;;;21.90;32.50;;;;;;5033715;28;20395;-60
2021/03/15 00:50:42;;;;;;;0.50;0.30;;;21.90;32.00;;;;;;5033319;28;20401;-61
2021/03/15 00:53:11;;;;;;;0.40;0.30;;;21.90;31.90;;;;;;5032825;28;20401;-60
2021/03/15 00:55:37;;;;;;;0.50;0.22;;;21.80;31.90;;;;;;5033357;28;20485;-60
2021/03/15 00:58:03;;;;;;;0.40;0.20;;;21.80;31.90;;;;;;5031827;28;20786;-60
2021/03/15 01:00:32;;;;;;;0.45;0.30;;;21.80;31.90;;;;;;5033445;28;20406;-60
2021/03/15 01:02:58;;;;;;;0.50;0.30;;;21.80;31.80;;;;;;5032890;28;20445;-60
2021/03/15 01:05:33;;;;;;;0.40;0.28;;;21.80;31.80;;;;;;5033358;28;20394;-60
2021/03/15 01:07:59;;;;;;;0.30;0.20;;;21.80;31.90;;;;;;5033325;28;20395;-61
2021/03/15 01:10:27;;;;;;;0.50;0.30;;;21.80;31.80;;;;;;5033239;28;20390;-60
2021/03/15 01:12:53;;;;;;;0.57;0.32;;;21.80;31.80;;;;;;5032650;28;20882;-60
2021/03/15 01:15:21;;;;;;;0.60;0.30;;;21.80;31.80;;;;;;5033096;28;20462;-61
2021/03/15 01:17:47;;;;;;;0.32;0.30;;;21.80;31.80;;;;;;5032925;28;20398;-60
2021/03/15 01:20:13;;;;;;;0.50;0.30;;;21.80;31.70;;;;;;5033081;28;20387;-61
2021/03/15 01:22:38;;;;;;;0.60;0.30;;;21.70;31.70;;;;;;5031684;28;20428;-61
2021/03/15 01:25:06;;;;;;;0.50;0.37;;;21.70;31.70;;;;;;5032542;28;20431;-60
2021/03/15 01:27:31;;;;;;;0.40;0.30;;;21.70;31.70;;;;;;5032856;28;20387;-60
2021/03/15 01:29:57;;;;;;;0.50;0.30;;;21.70;31.80;;;;;;5031635;28;20409;-60
2021/03/15 01:32:23;;;;;;;0.40;0.30;;;21.70;31.70;;;;;;5032662;28;20422;-60
2021/03/15 01:34:49;;;;;;;0.30;0.20;;;21.70;31.70;;;;;;5032498;28;20418;-60
2021/03/15 01:37:15;;;;;;;1.00;0.40;;;21.70;31.70;;;;;;5031254;28;20902;-60
2021/03/15 01:39:41;;;;;;;0.55;0.30;;;21.70;31.70;;;;;;5032664;28;20402;-61
2021/03/15 01:42:07;;;;;;;0.57;0.30;;;21.70;31.70;;;;;;5032650;28;20921;-60
2021/03/15 01:44:33;;;;;;;0.40;0.30;;;21.70;31.70;;;;;;5032580;28;20379;-60
2021/03/15 01:46:58;;;;;;;0.65;0.30;;;21.70;31.70;;;;;;5032023;28;20413;-60
2021/03/15 01:49:24;;;;;;;0.40;0.30;;;21.70;31.70;;;;;;5032503;28;20399;-60
2021/03/15 01:51:50;;;;;;;0.73;0.30;;;21.70;31.60;;;;;;5031153;28;20400;-61
2021/03/15 01:54:18;;;;;;;0.55;0.38;;;21.70;31.60;;;;;;5032323;28;20426;-60
2021/03/15 01:56:44;;;;;;;0.50;0.28;;;21.60;31.50;;;;;;5032297;28;20410;-60
2021/03/15 01:59:14;;;;;;;0.50;0.30;;;21.60;31.50;;;;;;5032026;28;20387;-60
2021/03/15 02:01:41;;;;;;;0.40;0.30;;;21.60;31.50;;;;;;5031607;28;20773;-60
2021/03/15 02:04:07;;;;;;;0.50;0.30;;;21.60;31.50;;;;;;5032240;28;20386;-60
2021/03/15 02:06:33;;;;;;;0.35;0.20;;;21.60;31.50;;;;;;5030881;28;20404;-61
2021/03/15 02:08:59;;;;;;;0.43;0.30;;;21.60;31.50;;;;;;5031777;28;20390;-60
2021/03/15 02:11:48;;;;;;;0.57;0.30;;;21.60;31.50;;;;;;5032134;28;20388;-60
2021/03/15 02:14:33;;;;;;;0.40;0.30;;;21.60;31.50;;;;;;5030495;28;20569;-61
2021/03/15 02:17:17;;;;;;;0.43;0.28;;;21.60;31.50;;;;;;5031126;28;20390;-60
2021/03/15 02:20:13;;;;;;;0.50;0.30;;;21.60;31.50;;;;;;5030786;28;20898;-60
2021/03/15 02:22:57;;;;;;;0.45;0.30;;;21.60;31.50;;;;;;5031926;28;20405;-60
2021/03/15 02:25:43;;;;;;;0.40;0.25;;;21.60;31.50;;;;;;5031774;28;20418;-60
2021/03/15 02:28:18;;;;;;;0.40;0.20;;;21.60;31.50;;;;;;5010870;28;20530;-60
2021/03/15 02:31:02;;;;;;;0.50;0.30;;;21.50;31.50;;;;;;5031535;28;20996;-60
2021/03/15 02:34:00;;;;;;;0.65;0.30;;;21.50;31.50;;;;;;5031675;28;20391;-60
2021/03/15 02:36:31;;;;;;;0.40;0.20;;;21.60;31.50;;;;;;5030355;28;20399;-60
2021/03/15 02:39:00;;;;;;;0.40;0.30;;;21.60;31.50;;;;;;5031280;28;20934;-60
2021/03/15 02:41:26;;;;;;;0.47;0.30;;;21.60;31.50;;;;;;5031580;28;20788;-60
2021/03/15 02:43:57;;;;;;;0.40;0.23;;;21.50;31.50;;;;;;5031590;28;20395;-60
2021/03/15 02:46:25;;;;;;;0.50;0.30;;;21.50;31.40;;;;;;5031642;28;20427;-61
2021/03/15 02:48:55;;;;;;;0.50;0.30;;;21.50;31.50;;;;;;5031277;28;20399;-60
2021/03/15 02:51:25;;;;;;;0.47;0.30;;;21.50;31.40;;;;;;5031452;28;20533;-60
2021/03/15 02:53:52;;;;;;;0.50;0.30;;;21.50;31.40;;;;;;5030169;28;20457;-60
2021/03/15 02:56:24;;;;;;;0.40;0.30;;;21.50;31.40;;;;;;5031456;28;20403;-61
2021/03/15 02:58:53;;;;;;;0.35;0.30;;;21.50;31.40;;;;;;5031550;28;20379;-61
2021/03/15 03:01:21;;;;;;;0.40;0.20;;;21.50;31.40;;;;;;5030887;28;20461;-61
2021/03/15 03:03:49;;;;;;;0.40;0.30;;;21.50;31.40;;;;;;5031348;28;20725;-60
2021/03/15 03:06:16;;;;;;;0.50;0.30;;;21.50;31.50;;;;;;5031414;28;20448;-61
2021/03/15 03:08:43;;;;;;;0.50;0.30;;;21.50;31.50;;;;;;5031565;28;20399;-61
2021/03/15 03:11:10;;;;;;;0.40;0.20;;;21.50;31.50;;;;;;5030880;28;20860;-60
2021/03/15 03:13:37;;;;;;;0.50;0.30;;;21.40;31.40;;;;;;5033101;28;20395;-61
2021/03/15 03:16:03;;;;;;;0.40;0.30;;;21.50;31.50;;;;;;5034961;28;20399;-61
2021/03/15 03:18:32;;;;;;;0.50;0.30;;;21.40;31.40;;;;;;5034789;28;20383;-60
2021/03/15 03:20:59;;;;;;;0.40;0.20;;;21.50;31.40;;;;;;5033536;28;20394;-60
2021/03/15 03:23:30;;;;;;;0.40;0.28;;;21.50;31.40;;;;;;5035145;28;20391;-60
2021/03/15 03:25:58;;;;;;;0.57;0.40;;;21.50;32.00;;;;;;5035188;28;20957;-60
2021/03/15 03:28:25;;;;;;;0.68;0.22;;;21.40;31.40;;;;;;5033772;28;20466;-60
2021/03/15 03:30:51;;;;;;;0.65;0.30;;;21.50;31.40;;;;;;5034896;28;20410;-61
2021/03/15 03:33:19;;;;;;;0.80;0.50;;;21.40;31.30;;;;;;5034919;28;20452;-60
2021/03/15 03:35:45;;;;;;;0.43;0.30;;;21.40;31.30;;;;;;5034920;28;20805;-60
2021/03/15 03:38:11;;;;;;;0.50;0.33;;;21.40;31.30;;;;;;5033800;28;20482;-60
2021/03/15 03:40:37;;;;;;;0.40;0.30;;;21.40;31.30;;;;;;5033662;28;20414;-60
2021/03/15 03:43:03;;;;;;;0.45;0.30;;;21.40;31.30;;;;;;5034243;28;20883;-60
2021/03/15 03:45:29;;;;;;;0.50;0.30;;;21.40;31.30;;;;;;5034794;28;20399;-60
2021/03/15 03:47:55;;;;;;;0.55;0.32;;;21.40;31.30;;;;;;5034855;28;21013;-60
2021/03/15 03:50:24;;;;;;;0.50;0.38;;;21.40;31.30;;;;;;5034678;28;20403;-61
2021/03/15 03:53:01;;;;;;;0.60;0.30;;;21.40;31.30;;;;;;5034738;28;20394;-61
2021/03/15 03:55:31;;;;;;;0.50;0.30;;;21.40;31.30;;;;;;5034557;28;20958;-60
2021/03/15 03:57:58;;;;;;;0.80;0.50;;;21.40;31.30;;;;;;5034666;28;20462;-60
2021/03/15 04:00:24;;;;;;;0.80;0.50;;;21.40;31.30;;;;;;5034501;28;20387;-60
2021/03/15 04:03:17;;;;;;;0.80;0.50;;;21.40;31.30;;;;;;5034301;28;20379;-60
2021/03/15 04:05:49;;;;;;;1.15;0.60;;;21.40;31.30;;;;;;5029139;28;20407;-60
2021/03/15 04:08:22;;;;;;;1.30;0.70;;;21.30;31.60;;;;;;5034496;28;20383;-60
2021/03/15 04:10:48;;;;;;;1.90;0.70;;;21.20;31.80;;;;;;5033099;28;20727;-60
2021/03/15 04:13:19;;;;;;;3.03;0.70;;;21.30;32.70;;;;;;5033957;28;20986;-60
2021/03/15 04:15:47;;;;;;;1.30;0.80;;;21.30;32.50;;;;;;5034155;28;20427;-60
2021/03/15 04:18:15;;;;;;;1.60;0.70;;;21.40;32.30;;;;;;5034271;28;20391;-60
2021/03/15 04:20:44;;;;;;;2.22;0.70;;;21.30;32.70;;;;;;5034046;28;20398;-60
2021/03/15 04:23:16;;;;;;;1.33;0.77;;;21.40;33.50;;;;;;5032222;28;20433;-60
2021/03/15 04:25:44;;;;;;;1.83;0.67;;;21.50;33.50;;;;;;5033259;28;20763;-60
2021/03/15 04:28:11;;;;;;;2.20;0.70;;;21.50;33.30;;;;;;5031992;28;20407;-60
2021/03/15 04:30:38;;;;;;;1.90;0.70;;;21.50;33.40;;;;;;5032568;28;20401;-60
2021/03/15 04:33:06;;;;;;;3.55;0.88;;;21.40;32.60;;;;;;5033186;28;20452;-60
2021/03/15 04:35:34;;;;;;;3.97;0.77;;;21.50;34.10;;;;;;5031649;28;20934;-60
2021/03/15 04:38:05;;;;;;;3.80;0.80;;;21.50;34.20;;;;;;5033733;28;20391;-60
2021/03/15 04:40:33;;;;;;;2.57;0.90;;;21.60;33.80;;;;;;5033766;28;20459;-60
2021/03/15 04:43:00;;;;;;;4.53;0.88;;;21.50;34.40;;;;;;5033396;28;20394;-60
2021/03/15 04:45:30;;;;;;;2.70;0.70;;;21.60;34.40;;;;;;5032409;28;20402;-61
2021/03/15 04:47:59;;;;;;;4.28;0.73;;;21.60;34.20;;;;;;5033131;28;20942;-61
2021/03/15 04:50:26;;;;;;;4.18;0.70;;;21.60;34.00;;;;;;5032939;28;20479;-60
2021/03/15 04:52:53;;;;;;;1.88;0.60;;;21.60;34.40;;;;;;5033623;28;20541;-61
2021/03/15 04:55:18;;;;;;;3.50;0.77;;;21.70;34.20;;;;;;5031346;28;20411;-61
2021/03/15 04:57:46;;;;;;;3.20;0.63;;;21.60;33.90;;;;;;5033144;28;20754;-61
2021/03/15 05:00:14;;;;;;;1.92;0.70;;;21.60;33.80;;;;;;5033340;28;20398;-61
2021/03/15 05:02:44;;;;;;;2.95;0.70;;;21.60;33.80;;;;;;5032808;28;20747;-61
2021/03/15 05:05:13;;;;;;;2.78;0.82;;;21.60;33.00;;;;;;5032782;28;20470;-60
2021/03/15 05:07:41;;;;;;;1.85;0.60;;;21.60;33.00;;;;;;5032773;28;20582;-61
2021/03/15 05:10:09;;;;;;;3.13;0.70;;;21.60;33.70;;;;;;5033020;28;20457;-61
2021/03/15 05:12:36;;;;;;;3.55;1.10;;;21.60;33.50;;;;;;5033030;28;20383;-61
2021/03/15 05:15:06;;;;;;;2.53;0.70;;;21.60;33.60;;;;;;5032831;28;20472;-61
2021/03/15 05:17:34;;;;;;;1.52;0.50;;;21.50;33.30;;;;;;5033322;28;20449;-61
2021/03/15 05:20:01;;;;;;;1.83;0.80;;;21.50;32.80;;;;;;5033071;28;20733;-61
2021/03/15 05:22:27;;;;;;;2.20;0.60;;;21.40;32.70;;;;;;5033000;28;20939;-61
2021/03/15 05:24:53;;;;;;;2.35;0.50;;;21.40;32.60;;;;;;5032950;28;20391;-61
2021/03/15 05:27:18;;;;;;;2.40;0.70;;;21.40;32.50;;;;;;5032501;28;20395;-61
2021/03/15 05:29:47;;;;;;;1.70;0.70;;;21.40;31.90;;;;;;5032881;28;20398;-61
2021/03/15 05:32:15;;;;;;;2.45;0.60;;;21.30;31.90;;;;;;5020373;28;20401;-61
2021/03/15 05:34:42;;;;;;;1.98;0.55;;;21.40;31.90;;;;;;5021903;28;20481;-62
2021/03/15 05:37:10;;;;;;;2.33;0.50;;;21.30;31.90;;;;;;5021739;28;20385;-61
2021/03/15 05:39:35;;;;;;;1.50;0.60;;;21.30;31.80;;;;;;5017599;28;20408;-62
2021/03/15 05:42:04;;;;;;;2.80;0.60;;;21.30;31.80;;;;;;5022748;28;20492;-61
2021/03/15 05:45:01;;;;;;;2.50;0.57;;;21.30;31.80;;;;;;5020030;28;20417;-61
2021/03/15 05:48:10;;;;;;;3.03;0.52;;;21.30;31.70;;;;;;5022293;28;20395;-62
2021/03/15 05:51:02;;;;;;;2.10;0.50;;;21.30;31.60;;;;;;5020539;28;20445;-61
2021/03/15 05:53:41;;;;;;;1.50;0.50;;;21.30;31.50;;;;;;5027435;28;20393;-61
2021/03/15 05:56:18;;;;;;;1.00;0.47;;;21.20;31.50;;;;;;5015202;28;20400;-62
2021/03/15 05:59:02;;;;;;;1.25;0.50;;;21.20;31.40;;;;;;5016278;28;20401;-61
2021/03/15 06:02:03;;;;;;;1.98;0.50;;;21.30;31.40;;;;;;5022392;28;20951;-62
2021/03/15 06:04:59;;;;;;;2.05;0.50;;;21.30;31.40;;;;;;5023208;28;20755;-61
2021/03/15 06:07:28;;;;;;;1.60;0.57;;;21.30;31.60;;;;;;5030124;28;20398;-61
2021/03/15 06:10:08;;;;;;;1.80;0.63;;;21.30;31.70;;;;;;5031938;28;20390;-61
2021/03/15 06:12:58;;;;;;;4.07;0.70;;;21.30;31.90;;;;;;5030320;28;20402;-61
2021/03/15 06:15:35;;;;;;;1.98;0.57;;;21.30;32.00;;;;;;5031082;28;20418;-61
2021/03/15 06:18:05;;;;;;;3.38;0.50;;;21.30;32.50;;;;;;5031704;28;20474;-61
2021/03/15 06:20:36;;;;;;;2.60;0.70;;;21.20;32.70;;;;;;5031793;28;20419;-61
2021/03/15 06:23:02;;;;;;;3.22;0.60;;;21.30;32.70;;;;;;5031369;28;20391;-60
2021/03/15 06:25:30;;;;;;;2.67;0.50;;;21.30;33.30;;;;;;5027137;28;20391;-61
2021/03/15 06:27:56;;;;;;;2.13;0.40;;;21.40;33.60;;;;;;5015703;28;20392;-61
2021/03/15 06:30:23;;;;;;;2.75;0.70;;;21.40;33.60;;;;;;5011360;28;20852;-61
2021/03/15 06:32:55;;;;;;;1.60;0.40;;;21.50;33.30;;;;;;5024684;28;20390;-60
2021/03/15 06:35:25;;;;;;;2.00;0.60;;;21.40;33.50;;;;;;5029726;28;20933;-59
2021/03/15 06:37:54;;;;;;;3.80;0.60;;;21.50;33.50;;;;;;5030418;28;20412;-59
2021/03/15 06:40:20;;;;;;;1.80;0.50;;;21.50;33.40;;;;;;5029324;28;20398;-60
2021/03/15 06:42:48;;;;;;;1.00;0.40;;;21.50;33.50;;;;;;5020400;28;20401;-60
2021/03/15 06:45:15;;;;;;;2.42;0.55;;;21.50;33.60;;;;;;5014555;28;20399;-60
2021/03/15 06:47:42;;;;;;;1.40;0.47;;;21.50;33.00;;;;;;4999826;28;20438;-60
2021/03/15 06:50:12;;;;;;;1.27;0.30;;;21.40;33.10;;;;;;5014912;28;20395;-60
2021/03/15 06:52:53;;;;;;;2.63;0.50;;;21.40;33.10;;;;;;5030365;28;20461;-60
2021/03/15 06:55:24;;;;;;;2.38;0.50;;;21.40;32.90;;;;;;5029803;28;20457;-61
2021/03/15 06:57:53;;;;;;;1.77;0.40;;;21.50;32.60;;;;;;5030898;28;20387;-61
2021/03/15 07:00:27;;;;;;;2.00;0.50;;;21.40;32.30;;;;;;5030906;28;20987;-62
2021/03/15 07:03:03;;;;;;;1.52;0.50;;;21.30;32.50;;;;;;5030846;28;20383;-61
2021/03/15 07:05:30;;;;;;;1.95;0.60;;;21.30;32.20;;;;;;5030111;28;20859;-61
2021/03/15 07:08:01;;;;;;;2.00;0.50;;;21.30;32.10;;;;;;5030965;28;20383;-61
2021/03/15 07:10:31;;;;;;;2.42;0.50;;;21.20;31.90;;;;;;5030440;28;20457;-61
2021/03/15 07:13:13;;;;;;;1.50;0.60;;;21.20;31.90;;;;;;5030833;28;20920;-61
2021/03/15 07:15:40;;;;;;;2.05;0.50;;;21.20;31.70;;;;;;5030333;28;20415;-63
2021/03/15 07:18:12;;;;;;;2.17;0.73;;;21.20;31.50;;;;;;5030614;28;20387;-61
2021/03/15 07:20:47;;;;;;;2.60;0.80;;;21.30;31.80;;;;;;5030240;28;20394;-61
2021/03/15 07:23:13;;;;;;;3.15;0.50;;;21.20;31.50;;;;;;5029947;28;20448;-61
2021/03/15 07:25:39;;;;;;;3.60;0.60;;;21.20;31.40;;;;;;5030582;28;20524;-61
2021/03/15 07:28:06;;;;;;;2.67;0.65;;;21.30;32.00;;;;;;5030660;28;20480;-61
2021/03/15 07:30:40;;;;;;;1.70;0.60;;;21.30;32.00;;;;;;5030600;28;20383;-61
2021/03/15 07:33:12;;;;;;;2.97;0.70;;;21.30;32.30;;;;;;5030482;28;20457;-61
2021/03/15 07:35:39;;;;;;;3.05;0.90;;;21.30;32.30;;;;;;5030735;28;20498;-61
2021/03/15 07:38:05;;;;;;;3.30;0.75;;;21.30;32.50;;;;;;5030634;28;20424;-61
2021/03/15 07:40:31;;;;;;;4.32;0.70;;;21.20;32.40;;;;;;5030524;28;20391;-62
2021/03/15 07:42:59;;;;;;;1.60;0.60;;;21.20;32.40;;;;;;5030614;28;20798;-62
2021/03/15 07:45:36;;;;;;;3.85;0.70;;;21.30;32.40;;;;;;5030174;28;20482;-62
2021/03/15 07:48:08;;;;;;;4.57;0.80;;;21.30;32.30;;;;;;5030403;28;20851;-62
2021/03/15 07:50:35;;;;;;;4.38;0.65;;;21.30;32.30;;;;;;5030474;28;20375;-62
2021/03/15 07:53:02;;;;;;;3.30;0.60;;;21.20;32.30;;;;;;5030586;28;20383;-62
2021/03/15 07:55:39;;;;;;;4.85;0.80;;;21.20;32.30;;;;;;5029790;28;20477;-62
2021/03/15 07:58:33;;;;;;;2.88;0.70;;;21.20;32.20;;;;;;5029304;28;20906;-62
2021/03/15 08:01:00;;;;;;;7.40;1.08;;;21.20;32.10;;;;;;5033052;28;20387;-62
2021/03/15 08:03:26;;;;;;;3.47;0.60;;;21.20;32.10;;;;;;5033364;28;20426;-62
2021/03/15 08:05:54;;;;;;;4.55;0.80;;;21.20;31.90;;;;;;5034162;28;20398;-62
2021/03/15 08:08:20;;;;;;;4.53;0.70;;;21.20;32.00;;;;;;5033990;28;20473;-62
2021/03/15 08:10:46;;;;;;;3.53;0.70;;;21.20;31.90;;;;;;5033904;28;20739;-62
2021/03/15 08:13:14;;;;;;;3.55;0.68;;;21.10;32.10;;;;;;5033557;28;20391;-61
2021/03/15 08:15:40;;;;;;;3.03;0.73;;;21.10;32.00;;;;;;5033538;28;20906;-62
2021/03/15 08:18:09;;;;;;;2.85;0.70;;;21.10;32.10;;;;;;5032569;28;20894;-62
2021/03/15 08:20:44;;;;;;;4.90;0.60;;;21.10;32.50;;;;;;5033846;28;20391;-62
2021/03/15 08:23:13;;;;;;;3.63;0.73;;;21.10;32.80;;;;;;5033505;28;20441;-62
2021/03/15 08:25:43;;;;;;;2.80;0.70;;;21.20;32.80;;;;;;5033636;28;20401;-62
2021/03/15 08:28:11;;;;;;;4.30;0.57;;;21.20;32.80;;;;;;5033677;28;20399;-62
2021/03/15 08:30:40;;;;;;;3.72;0.80;;;21.30;32.10;;;;;;5033295;28;20387;-63
2021/03/15 08:33:06;;;;;;;2.33;0.60;;;21.30;32.20;;;;;;5033519;28;20445;-61
2021/03/15 08:35:32;;;;;;;2.38;0.40;;;21.30;32.10;;;;;;5033005;28;20477;-62
2021/03/15 08:38:04;;;;;;;2.90;0.40;;;21.40;32.00;;;;;;5033481;28;20385;-62
2021/03/15 08:40:44;;;;;;;1.47;0.60;;;21.40;31.90;;;;;;5033388;28;20399;-62
2021/03/15 08:43:19;;;;;;;3.70;0.60;;;21.50;32.10;;;;;;5031712;28;20732;-61
2021/03/15 08:46:02;;;;;;;3.33;0.60;;;21.50;32.50;;;;;;5033451;28;20523;-62
2021/03/15 08:48:37;;;;;;;2.42;0.52;;;21.50;31.90;;;;;;5033260;28;20474;-62
2021/03/15 08:51:15;;;;;;;2.45;0.63;;;21.60;32.00;;;;;;5033252;28;20391;-61
2021/03/15 08:53:44;;;;;;;2.25;0.60;;;21.60;31.90;;;;;;5033326;28;20441;-62
2021/03/15 08:56:20;;;;;;;1.80;0.60;;;21.60;31.90;;;;;;5033235;28;20402;-61
2021/03/15 08:58:53;;;;;;;1.95;0.50;;;21.60;31.80;;;;;;5033080;28;20387;-61
2021/03/15 09:01:21;;;;;;;1.83;0.50;;;21.60;31.80;;;;;;5031223;28;20399;-61
2021/03/15 09:03:59;;;;;;;2.28;0.50;;;21.60;31.80;;;;;;5032997;28;20397;-62
2021/03/15 09:06:31;;;;;;;1.30;0.45;;;21.50;31.60;;;;;;5032855;28;20399;-61
2021/03/15 09:09:01;;;;;;;2.20;0.40;;;21.60;31.50;;;;;;5033207;28;20387;-62
2021/03/15 09:11:38;;;;;;;1.42;0.50;;;21.60;31.50;;;;;;5032376;28;20449;-61
2021/03/15 09:14:16;;;;;;;2.80;0.50;;;21.60;31.20;;;;;;5031517;28;20996;-62
2021/03/15 09:16:46;;;;;;;1.23;0.40;;;21.60;31.40;;;;;;5032732;28;20894;-62
2021/03/15 09:19:25;;;;;;;1.73;0.40;;;21.60;31.20;;;;;;5032619;28;20478;-62
2021/03/15 09:22:00;;;;;;;5.57;0.50;;;21.60;31.30;;;;;;5032742;28;20502;-62
2021/03/15 09:24:45;;;;;;;3.60;0.50;;;21.60;31.40;;;;;;5032562;28;20395;-61
2021/03/15 09:27:41;;;;;;;7.35;0.60;;;21.50;31.80;;;;;;5032233;28;20453;-61
2021/03/15 09:30:09;;;;;;;7.43;0.90;;;21.50;32.40;;;;;;5032922;28;20470;-62
2021/03/15 09:32:35;;;;;;;11.85;3.65;;;21.60;32.40;;;;;;5032173;28;20411;-62
2021/03/15 09:35:29;;;;;;;36.00;27.85;;;21.60;32.50;;;;;;5032360;28;20498;-62
2021/03/15 09:38:04;;;;;;;383.83;343.33;;;21.70;32.60;;;;;;5031987;28;20832;-62
2021/03/15 09:40:38;;;;;;;644.55;579.10;;;21.70;32.00;;;;;;5032147;28;20822;-63
2021/03/15 09:43:05;;;;;;;846.92;681.50;;;21.70;31.70;;;;;;5032278;28;20465;-62
2021/03/15 09:45:40;;;;;;;436.45;389.58;;;21.70;31.20;;;;;;5031561;28;20441;-62
2021/03/15 09:48:21;;;;;;;401.50;357.80;;;21.60;29.90;;;;;;5032145;28;20470;-63
2021/03/15 09:50:50;;;;;;;363.60;323.88;;;21.50;29.90;;;;;;5031987;28;20383;-63
2021/03/15 09:53:16;;;;;;;374.70;333.80;;;21.50;29.50;;;;;;5031547;28;20437;-61
2021/03/15 09:55:43;;;;;;;374.00;332.80;;;21.40;30.00;;;;;;5031838;28;20419;-62
2021/03/15 09:58:17;;;;;;;317.98;283.30;;;21.50;30.00;;;;;;5031768;28;20395;-62
2021/03/15 10:00:44;;;;;;;261.00;232.95;;;21.60;30.00;;;;;;5030584;28;20791;-62
2021/03/15 10:03:20;;;;;;;308.65;274.95;;;21.70;29.80;;;;;;5031703;28;20426;-69
2021/03/15 10:05:48;;;;;;;477.95;422.23;;;21.80;30.20;;;;;;5030465;28;20479;-62
2021/03/15 10:08:13;;;;;;;604.60;540.47;;;22.00;29.70;;;;;;5031637;28;20414;-61
2021/03/15 10:10:39;;;;;;;698.53;624.43;;;22.00;29.70;;;;;;5031465;28;21061;-61
2021/03/15 10:13:06;;;;;;;811.60;720.53;;;22.20;29.70;;;;;;5031367;28;20391;-61
2021/03/15 10:15:33;;;;;;;788.00;700.25;;;22.30;29.50;;;;;;5013561;28;20520;-60
2021/03/15 10:17:59;;;;;;;767.28;685.40;;;22.30;29.80;;;;;;5010139;28;20392;-61
2021/03/15 10:20:30;;;;;;;622.45;558.72;;;22.30;30.00;;;;;;5011563;28;20913;-60
2021/03/15 10:22:56;;;;;;;430.65;380.10;;;22.30;29.90;;;;;;5011238;28;20427;-61
2021/03/15 10:25:23;;;;;;;289.73;256.02;;;22.30;29.60;;;;;;5011065;28;20432;-64
2021/03/15 10:27:53;;;;;;;267.92;238.20;;;22.30;29.60;;;;;;5011647;28;20459;-63
2021/03/15 10:30:19;;;;;;;224.80;193.60;;;22.30;29.40;;;;;;5011346;28;20400;-62
2021/03/15 10:32:45;;;;;;;169.43;141.48;;;22.30;29.40;;;;;;5011173;28;20491;-61
2021/03/15 10:35:12;;;;;;;128.80;108.97;;;22.40;29.50;;;;;;5011419;28;20444;-61
2021/03/15 10:37:40;;;;;;;264.83;237.57;;;22.40;29.60;;;;;;5009496;28;20389;-60
2021/03/15 10:40:09;;;;;;;173.45;154.52;;;22.40;29.50;;;;;;5011493;28;20471;-60
2021/03/15 10:42:36;;;;;;;142.07;126.65;;;22.50;29.40;;;;;;5011083;28;20389;-61
2021/03/15 10:45:10;;;;;;;117.38;102.88;;;22.60;29.40;;;;;;5006956;28;20389;-60
2021/03/15 10:47:37;;;;;;;113.97;99.53;;;22.50;29.30;;;;;;5010468;28;20388;-61
2021/03/15 10:50:44;;;;;;;127.43;109.78;;;22.60;29.40;;;;;;5010948;28;20401;-60
2021/03/15 10:53:15;;;;;;;121.32;105.78;;;22.70;29.40;;;;;;5011133;28;20484;-61
2021/03/15 10:55:41;;;;;;;111.55;96.55;;;22.80;29.40;;;;;;5010837;28;20416;-60
2021/03/15 10:58:09;;;;;;;110.80;97.35;;;22.70;29.10;;;;;;5011128;28;20385;-59
2021/03/15 11:01:01;;;;;;;107.67;94.17;;;22.60;29.30;;;;;;5010819;28;20458;-61
2021/03/15 11:03:30;;;;;;;103.97;90.35;;;22.60;29.50;;;;;;5003781;28;20446;-59
2021/03/15 11:06:12;;;;;;;101.53;88.00;;;22.50;29.40;;;;;;5011027;28;20397;-60
2021/03/15 11:08:38;;;;;;;96.63;84.83;;;22.40;29.50;;;;;;5010956;28;20484;-60
2021/03/15 11:11:19;;;;;;;93.60;81.80;;;22.40;29.50;;;;;;5010649;28;20444;-61
2021/03/15 11:13:49;;;;;;;138.07;120.47;;;22.40;29.50;;;;;;5010758;28;20400;-59
2021/03/15 11:16:20;;;;;;;139.55;120.25;;;22.40;29.60;;;;;;5010895;28;20393;-59
2021/03/15 11:18:47;;;;;;;127.18;109.68;;;22.40;29.60;;;;;;5010693;28;20404;-59
2021/03/15 11:21:13;;;;;;;108.07;95.22;;;22.50;29.80;;;;;;5010967;28;20873;-60
2021/03/15 11:23:41;;;;;;;99.82;86.28;;;22.50;29.80;;;;;;5010465;28;21048;-59
2021/03/15 11:26:07;;;;;;;93.23;82.43;;;22.50;29.80;;;;;;5010876;28;20385;-59
2021/03/15 11:28:35;;;;;;;90.50;80.03;;;22.50;29.70;;;;;;5010606;28;20395;-59
2021/03/15 11:31:01;;;;;;;89.40;78.63;;;22.50;29.70;;;;;;5010660;28;20927;-59
2021/03/15 11:33:28;;;;;;;86.97;77.28;;;22.50;29.70;;;;;;5010252;28;20385;-59
2021/03/15 11:35:56;;;;;;;85.07;74.28;;;22.50;29.80;;;;;;5012871;28;20432;-59
2021/03/15 11:38:24;;;;;;;81.50;71.75;;;22.50;29.70;;;;;;5014305;28;20905;-59
2021/03/15 11:40:50;;;;;;;76.43;65.70;;;22.50;29.80;;;;;;5014596;28;20479;-59
2021/03/15 11:43:17;;;;;;;73.43;63.13;;;22.50;29.50;;;;;;5014027;28;20388;-58
2021/03/15 11:45:43;;;;;;;73.50;62.90;;;22.50;29.70;;;;;;5014160;28;20393;-59
2021/03/15 11:48:08;;;;;;;70.75;61.15;;;22.50;30.10;;;;;;5014472;28;20389;-60
2021/03/15 11:50:36;;;;;;;70.07;60.47;;;22.60;29.60;;;;;;5014306;28;20395;-59
2021/03/15 11:53:03;;;;;;;66.82;58.83;;;22.50;29.80;;;;;;5014725;28;20389;-59
2021/03/15 11:55:30;;;;;;;87.55;77.95;;;22.50;29.70;;;;;;5024201;28;20468;-59
2021/03/15 11:57:55;;;;;;;159.55;144.18;;;22.50;29.70;;;;;;5038279;28;20422;-59
2021/03/15 12:00:22;;;;;;;264.98;242.13;;;22.50;29.90;;;;;;5024285;28;20457;-59
2021/03/15 12:02:49;;;;;;;262.35;240.40;;;22.60;29.90;;;;;;5032112;28;20426;-59
2021/03/15 12:05:16;;;;;;;329.10;301.88;;;22.60;29.70;;;;;;5026780;28;20428;-60
2021/03/15 12:07:42;;;;;;;434.70;397.55;;;22.70;29.70;;;;;;5023366;28;21151;-59
2021/03/15 12:10:13;;;;;;;552.83;505.57;;;22.70;29.80;;;;;;5023157;28;20392;-60
2021/03/15 12:12:39;;;;;;;693.10;634.58;;;22.70;29.60;;;;;;5020466;28;20749;-60
2021/03/15 12:15:11;;;;;;;734.67;669.45;;;22.80;29.70;;;;;;5023036;28;20886;-60
2021/03/15 12:17:37;;;;;;;855.70;768.78;;;22.90;29.70;;;;;;5023654;28;20418;-60
2021/03/15 12:20:07;;;;;;;803.90;723.10;;;23.00;29.70;;;;;;5022583;28;20401;-61
2021/03/15 12:22:34;;;;;;;763.00;687.88;;;23.00;30.00;;;;;;5022144;28;20407;-60
2021/03/15 12:25:00;;;;;;;655.80;593.75;;;23.00;29.40;;;;;;5021895;28;20892;-60
2021/03/15 12:27:26;;;;;;;591.90;536.80;;;23.10;29.40;;;;;;5022215;28;20398;-59
2021/03/15 12:29:52;;;;;;;554.95;503.52;;;23.20;29.30;;;;;;5023432;28;20440;-60
2021/03/15 12:32:18;;;;;;;518.85;470.33;;;23.30;29.30;;;;;;5021622;28;20455;-60
2021/03/15 12:34:45;;;;;;;480.17;434.02;;;23.30;30.00;;;;;;5022882;28;20414;-61
2021/03/15 12:37:11;;;;;;;443.90;400.80;;;23.40;29.90;;;;;;5023268;28;20432;-60
2021/03/15 12:39:37;;;;;;;440.55;397.75;;;23.50;29.50;;;;;;5020989;28;20421;-61
2021/03/15 12:42:03;;;;;;;436.20;394.10;;;23.50;29.50;;;;;;5022326;28;20403;-60
2021/03/15 12:44:31;;;;;;;426.27;385.58;;;23.50;29.80;;;;;;5022877;28;20432;-61
2021/03/15 12:46:57;;;;;;;412.52;373.02;;;23.50;29.20;;;;;;5021028;28;20467;-62
2021/03/15 12:49:22;;;;;;;369.05;334.42;;;23.50;29.20;;;;;;5023118;28;20430;-61
2021/03/15 12:51:48;;;;;;;337.20;305.93;;;23.50;29.40;;;;;;5022355;28;20416;-61
2021/03/15 12:54:14;;;;;;;318.98;289.30;;;23.50;29.40;;;;;;5021481;28;20407;-61